createdAt,value
2019-01-15T00:00:30.056Z,1.80
2019-01-15T00:03:24.392Z,1.87
2019-01-15T00:06:17.448Z,3.37
2019-01-15T00:09:10.758Z,2.10
2019-01-15T00:12:07.853Z,2.17
2019-01-15T00:14:56.872Z,2.37
2019-01-15T00:17:49.671Z,2.37
2019-01-15T00:20:42.729Z,2.83
2019-01-15T00:23:35.526Z,2.27
2019-01-15T00:26:29.353Z,2.87
2019-01-15T00:29:35.975Z,2.05
2019-01-15T00:32:29.032Z,3.00
2019-01-15T00:35:23.379Z,1.95
2019-01-15T00:38:16.166Z,2.02
2019-01-15T00:41:09.223Z,2.17
2019-01-15T00:44:04.842Z,2.62
2019-01-15T00:46:54.066Z,2.60
2019-01-15T00:49:45.575Z,2.05
2019-01-15T00:52:38.632Z,2.65
2019-01-15T00:55:31.947Z,2.52
2019-01-15T00:58:49.066Z,1.65
2019-01-15T01:01:42.126Z,3.02
2019-01-15T01:04:42.859Z,2.83
2019-01-15T01:07:38.990Z,2.10
2019-01-15T01:10:32.295Z,2.02
2019-01-15T01:13:25.096Z,2.08
2019-01-15T01:16:18.153Z,2.25
2019-01-15T01:19:11.978Z,2.58
2019-01-15T01:22:05.032Z,2.20
2019-01-15T01:24:55.527Z,1.95
2019-01-15T01:27:48.846Z,2.02
2019-01-15T01:30:42.921Z,2.62
2019-01-15T01:33:35.976Z,2.10
2019-01-15T01:36:28.774Z,2.72
2019-01-15T01:39:21.831Z,2.15
2019-01-15T01:42:15.668Z,1.90
2019-01-15T01:45:08.970Z,2.12
2019-01-15T01:48:02.537Z,1.82
2019-01-15T01:50:55.336Z,3.02
2019-01-15T01:53:49.415Z,1.85
2019-01-15T01:56:42.216Z,1.92
2019-01-15T01:59:35.014Z,2.10
2019-01-15T02:02:28.071Z,1.80
2019-01-15T02:05:21.127Z,1.95
2019-01-15T02:08:14.182Z,2.30
2019-01-15T02:11:07.752Z,3.10
2019-01-15T02:14:00.559Z,2.67
2019-01-15T02:16:53.359Z,2.42
2019-01-15T02:19:46.408Z,2.30
2019-01-15T02:22:39.207Z,1.85
2019-01-15T02:25:32.008Z,3.70
2019-01-15T02:28:24.809Z,2.95
2019-01-15T02:31:17.609Z,1.85
2019-01-15T02:34:10.920Z,1.98
2019-01-15T02:37:06.537Z,2.33
2019-01-15T02:39:59.334Z,2.10
2019-01-15T02:43:01.098Z,2.60
2019-01-15T02:45:53.896Z,2.05
2019-01-15T02:48:47.979Z,2.95
2019-01-15T02:51:42.059Z,2.25
2019-01-15T02:54:34.858Z,1.95
2019-01-15T02:57:29.959Z,1.65
2019-01-15T03:00:23.029Z,1.87
2019-01-15T03:03:16.076Z,2.85
2019-01-15T03:06:09.127Z,1.70
2019-01-15T03:09:02.185Z,1.70
2019-01-15T03:11:55.002Z,3.02
2019-01-15T03:14:44.440Z,2.25
2019-01-15T03:17:37.256Z,2.20
2019-01-15T03:20:31.087Z,2.12
2019-01-15T03:23:24.140Z,2.45
2019-01-15T03:26:17.959Z,1.77
2019-01-15T03:29:12.041Z,2.02
2019-01-15T03:32:05.102Z,1.60
2019-01-15T03:35:00.715Z,1.92
2019-01-15T03:37:52.489Z,2.65
2019-01-15T03:40:48.871Z,1.90
2019-01-15T03:43:41.929Z,1.85
2019-01-15T03:46:34.984Z,1.85
2019-01-15T03:49:27.783Z,2.02
2019-01-15T03:52:17.002Z,2.20
2019-01-15T03:55:06.216Z,3.00
2019-01-15T03:58:02.093Z,2.20
2019-01-15T04:00:55.151Z,2.02
2019-01-15T04:03:48.214Z,1.98
2019-01-15T04:06:41.260Z,1.70
2019-01-15T04:09:30.982Z,1.90
2019-01-15T04:12:24.041Z,2.00
2019-01-15T04:15:17.608Z,1.75
2019-01-15T04:18:13.478Z,1.77
2019-01-15T04:21:09.107Z,1.70
2019-01-15T04:24:02.156Z,1.75
2019-01-15T04:26:56.505Z,1.90
2019-01-15T04:29:51.596Z,1.77
2019-01-15T04:32:44.391Z,2.00
2019-01-15T04:35:37.960Z,2.10
2019-01-15T04:38:35.110Z,1.77
2019-01-15T04:41:28.167Z,2.02
2019-01-15T04:44:21.222Z,1.82
2019-01-15T04:47:14.032Z,1.70
2019-01-15T04:50:06.827Z,1.80
2019-01-15T04:53:01.673Z,1.75
2019-01-15T04:55:54.475Z,1.85
2019-01-15T04:58:50.598Z,1.80
2019-01-15T05:01:43.656Z,1.70
2019-01-15T05:04:36.458Z,1.82
2019-01-15T05:07:29.256Z,1.80
2019-01-15T05:10:22.316Z,1.92
2019-01-15T05:13:15.371Z,1.55
2019-01-15T05:16:08.424Z,1.50
2019-01-15T05:19:04.038Z,1.90
2019-01-15T05:21:57.096Z,1.82
2019-01-15T05:24:49.897Z,1.90
2019-01-15T05:27:42.707Z,1.60
2019-01-15T05:30:39.598Z,1.70
2019-01-15T05:33:32.397Z,1.90
2019-01-15T05:36:21.357Z,1.57
2019-01-15T05:39:14.153Z,1.52
2019-01-15T05:42:07.468Z,1.82
2019-01-15T05:45:01.288Z,1.50
2019-01-15T05:47:54.109Z,2.02
2019-01-15T05:50:56.875Z,1.82
2019-01-15T05:53:49.932Z,1.55
2019-01-15T05:56:45.039Z,1.20
2019-01-15T05:59:39.625Z,1.37
2019-01-15T06:02:34.482Z,1.55
2019-01-15T06:05:28.823Z,1.52
2019-01-15T06:08:23.146Z,1.85
2019-01-15T06:11:08.517Z,1.80
2019-01-15T06:14:02.344Z,1.95
2019-01-15T06:16:56.166Z,2.17
2019-01-15T06:19:52.042Z,2.05
2019-01-15T06:22:44.841Z,1.42
2019-01-15T06:25:39.437Z,1.67
2019-01-15T06:28:32.487Z,1.67
2019-01-15T06:31:25.542Z,1.50
2019-01-15T06:34:18.858Z,1.98
2019-01-15T06:37:12.430Z,1.57
2019-01-15T06:40:06.249Z,1.80
2019-01-15T06:42:59.559Z,1.90
2019-01-15T06:45:52.360Z,1.77
2019-01-15T06:48:48.233Z,2.15
2019-01-15T06:51:37.201Z,1.85
2019-01-15T06:54:24.560Z,1.85
2019-01-15T06:57:13.846Z,1.62
2019-01-15T07:00:08.215Z,2.17
2019-01-15T07:03:01.224Z,1.67
2019-01-15T07:05:48.392Z,1.72
2019-01-15T07:08:41.190Z,2.10
2019-01-15T07:11:35.783Z,1.60
2019-01-15T07:14:28.840Z,1.75
2019-01-15T07:17:21.895Z,1.87
2019-01-15T07:20:11.112Z,2.02
2019-01-15T07:23:04.167Z,1.92
2019-01-15T07:25:57.486Z,1.65
2019-01-15T07:28:50.794Z,1.55
2019-01-15T07:31:40.105Z,1.10
2019-01-15T07:34:33.061Z,2.15
2019-01-15T07:37:26.121Z,2.00
2019-01-15T07:40:19.433Z,1.70
2019-01-15T07:43:12.747Z,1.92
2019-01-15T07:46:05.801Z,1.80
2019-01-15T07:49:00.136Z,2.00
2019-01-15T07:51:52.935Z,1.75
2019-01-15T07:54:49.064Z,2.40
2019-01-15T07:57:41.872Z,2.05
2019-01-15T08:00:36.199Z,1.40
2019-01-15T08:03:25.480Z,1.70
2019-01-15T08:06:19.752Z,3.33
2019-01-15T08:09:12.811Z,1.77
2019-01-15T08:12:03.305Z,2.62
2019-01-15T08:14:56.362Z,1.80
2019-01-15T08:17:49.423Z,2.15
2019-01-15T08:20:39.921Z,1.67
2019-01-15T08:23:27.305Z,2.00
2019-01-15T08:26:16.302Z,1.85
2019-01-15T08:29:09.355Z,3.10
2019-01-15T08:32:02.152Z,1.80
2019-01-15T08:34:55.975Z,2.10
2019-01-15T08:37:48.839Z,2.22
2019-01-15T08:40:41.830Z,1.77
2019-01-15T08:43:47.189Z,1.70
2019-01-15T08:46:40.488Z,2.27
2019-01-15T08:49:33.545Z,2.08
2019-01-15T08:52:27.375Z,2.35
2019-01-15T08:55:20.171Z,1.75
2019-01-15T08:58:12.969Z,2.35
2019-01-15T09:01:05.769Z,2.17
2019-01-15T09:03:58.823Z,1.87
2019-01-15T09:06:51.625Z,1.82
2019-01-15T09:09:45.707Z,2.47
2019-01-15T09:12:38.762Z,2.00
2019-01-15T09:15:33.352Z,2.42
2019-01-15T09:18:21.545Z,2.10
2019-01-15T09:21:14.855Z,1.70
2019-01-15T09:24:08.170Z,1.85
2019-01-15T09:27:01.225Z,2.80
2019-01-15T09:29:50.380Z,2.77
2019-01-15T09:32:43.240Z,1.90
2019-01-15T09:35:36.039Z,2.15
2019-01-15T09:38:28.852Z,1.32
2019-01-15T09:41:17.801Z,1.80
2019-01-15T09:44:10.857Z,2.22
2019-01-15T09:47:04.679Z,2.30
2019-01-15T09:49:58.505Z,1.75
2019-01-15T09:52:51.562Z,1.80
2019-01-15T09:55:44.359Z,2.00
2019-01-15T09:58:37.168Z,2.47
2019-01-15T10:01:29.961Z,2.20
2019-01-15T10:04:19.187Z,1.55
2019-01-15T10:07:12.232Z,2.80
2019-01-15T10:10:01.447Z,2.00
2019-01-15T10:12:54.504Z,2.70
2019-01-15T10:15:47.309Z,1.65
2019-01-15T10:18:40.359Z,2.08
2019-01-15T10:21:33.926Z,1.70
2019-01-15T10:24:26.983Z,2.10
2019-01-15T10:27:19.783Z,2.20
2019-01-15T10:30:15.666Z,2.22
2019-01-15T10:33:19.977Z,2.02
2019-01-15T10:36:08.684Z,2.00
2019-01-15T10:39:01.740Z,2.05
2019-01-15T10:41:55.565Z,1.52
2019-01-15T10:44:48.718Z,1.57
2019-01-15T10:47:38.857Z,1.70
2019-01-15T10:50:28.070Z,1.80
2019-01-15T10:53:21.134Z,1.60
2019-01-15T10:56:14.183Z,1.72
2019-01-15T10:59:03.403Z,1.92
2019-01-15T11:01:52.619Z,1.60
2019-01-15T11:04:45.930Z,1.70
2019-01-15T11:07:38.985Z,2.15
2019-01-15T11:10:32.808Z,1.40
2019-01-15T11:13:26.121Z,1.45
2019-01-15T11:16:18.922Z,1.45
2019-01-15T11:19:12.245Z,1.67
2019-01-15T11:22:05.033Z,1.52
2019-01-15T11:24:57.830Z,1.55
2019-01-15T11:27:50.900Z,1.57
2019-01-15T11:30:43.957Z,1.55
2019-01-15T11:33:37.000Z,1.57
2019-01-15T11:36:32.365Z,1.60
2019-01-15T11:39:19.786Z,1.87
2019-01-15T11:42:12.840Z,2.47
2019-01-15T11:45:05.663Z,1.55
2019-01-15T11:47:58.442Z,1.45
2019-01-15T11:50:45.609Z,2.20
2019-01-15T11:53:34.950Z,1.40
2019-01-15T11:56:27.879Z,1.57
2019-01-15T11:59:20.426Z,1.70
2019-01-15T12:02:22.164Z,2.22
2019-01-15T12:05:30.343Z,1.77
2019-01-15T12:08:46.440Z,1.32
2019-01-15T12:11:49.222Z,1.32
2019-01-15T12:15:02.246Z,1.47
2019-01-15T12:18:21.677Z,2.00
2019-01-15T12:21:26.269Z,1.50
2019-01-15T12:24:42.348Z,1.65
2019-01-15T12:27:52.299Z,1.27
2019-01-15T12:30:55.337Z,1.15
2019-01-15T12:34:10.647Z,1.87
2019-01-15T12:37:21.129Z,1.52
2019-01-15T12:40:31.593Z,1.50
2019-01-15T12:43:36.167Z,1.47
2019-01-15T12:46:37.165Z,1.72
2019-01-15T12:49:54.024Z,1.05
2019-01-15T12:53:13.450Z,1.42
2019-01-15T12:56:16.855Z,1.52
2019-01-15T12:59:30.790Z,1.20
2019-01-15T13:02:31.269Z,1.27
2019-01-15T13:05:32.776Z,1.57
2019-01-15T13:08:49.391Z,1.30
2019-01-15T13:12:00.360Z,1.30
2019-01-15T13:15:11.087Z,1.07
2019-01-15T13:18:25.384Z,1.37
2019-01-15T13:21:38.413Z,1.10
2019-01-15T13:24:43.238Z,1.55
2019-01-15T13:27:45.257Z,1.40
2019-01-15T13:30:55.739Z,1.52
2019-01-15T13:33:59.788Z,1.45
2019-01-15T13:37:00.007Z,1.27
2019-01-15T13:40:03.047Z,1.17
2019-01-15T13:43:13.515Z,1.50
2019-01-15T13:46:20.904Z,1.72
2019-01-15T13:49:24.713Z,1.65
2019-01-15T13:52:31.850Z,1.55
2019-01-15T13:55:34.378Z,1.67
2019-01-15T13:58:39.721Z,2.33
2019-01-15T14:02:01.704Z,1.47
2019-01-15T14:05:05.773Z,1.30
2019-01-15T14:08:17.001Z,1.60
2019-01-15T14:11:22.089Z,1.30
2019-01-15T14:14:26.423Z,1.50
2019-01-15T14:17:30.730Z,1.55
2019-01-15T14:20:32.745Z,1.50
2019-01-15T14:23:41.675Z,1.47
2019-01-15T14:26:40.361Z,1.82
2019-01-15T14:29:44.425Z,1.57
2019-01-15T14:32:43.623Z,2.27
2019-01-15T14:36:00.743Z,1.70
2019-01-15T14:39:21.965Z,2.37
2019-01-15T14:42:20.653Z,1.70
2019-01-15T14:45:37.000Z,2.05
2019-01-15T14:48:34.056Z,2.17
2019-01-15T14:51:36.936Z,2.70
2019-01-15T14:54:41.004Z,2.10
2019-01-15T14:58:00.683Z,2.85
2019-01-15T15:01:11.656Z,2.02
2019-01-15T15:04:21.611Z,1.60
2019-01-15T15:07:35.655Z,2.08
2019-01-15T15:10:42.801Z,1.50
2019-01-15T15:13:54.796Z,1.92
2019-01-15T15:16:57.831Z,2.05
2019-01-15T15:20:12.133Z,1.80
2019-01-15T15:23:22.858Z,2.02
2019-01-15T15:26:39.463Z,2.10
2019-01-15T15:29:55.562Z,1.60
2019-01-15T15:33:00.649Z,1.80
2019-01-15T15:36:03.435Z,1.95
2019-01-15T15:39:08.009Z,1.87
2019-01-15T15:42:27.687Z,2.55
2019-01-15T15:45:29.192Z,2.47
2019-01-15T15:48:42.471Z,2.00
2019-01-15T15:51:56.778Z,2.52
2019-01-15T15:55:05.709Z,1.82
2019-01-15T15:58:18.476Z,2.20
2019-01-15T16:01:35.590Z,2.22
2019-01-15T16:04:40.164Z,2.40
2019-01-15T16:07:38.599Z,2.60
2019-01-15T16:10:42.407Z,1.85
2019-01-15T16:13:46.982Z,2.50
2019-01-15T16:16:48.743Z,1.77
2019-01-15T16:20:07.910Z,2.08
2019-01-15T16:23:23.495Z,2.00
2019-01-15T16:26:33.704Z,1.95
2019-01-15T16:29:40.328Z,1.90
2019-01-15T16:32:44.810Z,2.05
2019-01-15T16:35:49.224Z,1.52
2019-01-15T16:38:52.274Z,2.25
2019-01-15T16:42:17.833Z,1.80
2019-01-15T16:45:34.453Z,1.92
2019-01-15T16:48:38.765Z,1.90
2019-01-15T16:51:41.801Z,2.00
2019-01-15T16:54:44.072Z,2.75
2019-01-15T16:57:51.467Z,2.83
2019-01-15T17:00:58.855Z,3.17
2019-01-15T17:04:05.226Z,2.72
2019-01-15T17:07:28.489Z,2.83
2019-01-15T17:10:35.635Z,3.22
2019-01-15T17:13:39.947Z,3.95
2019-01-15T17:16:42.470Z,3.20
2019-01-15T17:19:45.254Z,3.40
2019-01-15T17:22:49.578Z,3.27
2019-01-15T17:25:56.970Z,2.67
2019-01-15T17:29:00.519Z,3.35
2019-01-15T17:32:05.642Z,3.05
2019-01-15T17:35:15.305Z,2.85
2019-01-15T17:41:49.609Z,3.12
2019-01-15T17:44:54.914Z,3.37
2019-01-15T17:47:59.208Z,3.12
2019-01-15T17:51:15.304Z,3.40
2019-01-15T17:54:34.473Z,3.02
2019-01-15T17:57:41.866Z,3.20
2019-01-15T18:01:01.541Z,3.20
2019-01-15T18:04:05.867Z,3.02
2019-01-15T18:07:16.389Z,3.90
2019-01-15T18:10:21.884Z,3.87
2019-01-15T18:13:28.811Z,3.33
2019-01-15T18:16:48.480Z,3.45
2019-01-15T18:19:47.187Z,3.83
2019-01-15T18:22:55.606Z,3.12
2019-01-15T18:26:02.751Z,3.40
2019-01-15T18:29:22.703Z,3.52
2019-01-15T18:32:30.567Z,3.20
2019-01-15T18:35:32.331Z,3.45
2019-01-15T18:38:42.797Z,3.30
2019-01-15T18:41:52.750Z,3.33
2019-01-15T18:44:59.634Z,3.87
2019-01-15T18:48:14.185Z,3.37
2019-01-15T18:51:18.505Z,3.25
2019-01-15T18:54:21.545Z,3.65
2019-01-15T18:57:25.871Z,3.02
2019-01-15T19:00:30.959Z,3.22
2019-01-15T19:03:49.610Z,3.17
2019-01-15T19:07:00.850Z,2.87
2019-01-15T19:10:05.163Z,3.42
2019-01-15T19:13:17.926Z,3.00
2019-01-15T19:16:21.579Z,3.10
2019-01-15T19:19:40.923Z,3.70
2019-01-15T19:22:43.947Z,3.15
2019-01-15T19:25:57.479Z,2.72
2019-01-15T19:29:08.716Z,3.55
2019-01-15T19:32:15.852Z,3.05
2019-01-15T19:35:32.973Z,3.20
2019-01-15T19:38:35.763Z,3.20
2019-01-15T19:41:38.542Z,3.27
2019-01-15T19:44:43.904Z,3.42
2019-01-15T19:47:47.181Z,3.50
2019-01-15T19:50:51.752Z,3.27
2019-01-15T19:54:07.848Z,3.15
2019-01-15T19:57:24.202Z,10.13
2019-01-15T20:00:40.809Z,4.78
2019-01-15T20:03:47.950Z,5.62
2019-01-15T20:06:54.059Z,4.95
2019-01-15T20:10:13.742Z,5.28
2019-01-15T20:13:18.568Z,4.75
2019-01-15T20:16:22.378Z,3.60
2019-01-15T20:19:21.050Z,4.17
2019-01-15T20:22:34.351Z,4.72
2019-01-15T20:25:39.689Z,4.17
2019-01-15T20:28:55.017Z,3.52
2019-01-15T20:31:59.349Z,4.47
2019-01-15T20:35:12.618Z,3.60
2019-01-15T20:38:17.452Z,3.65
2019-01-15T20:41:41.238Z,3.12
2019-01-15T20:44:46.064Z,3.52
2019-01-15T20:47:50.378Z,3.02
2019-01-15T20:51:09.804Z,3.60
2019-01-15T20:54:17.194Z,2.95
2019-01-15T20:57:37.646Z,3.20
2019-01-15T21:04:22.374Z,3.70
2019-01-15T21:07:25.418Z,4.30
2019-01-15T21:10:31.728Z,4.72
2019-01-15T21:13:45.072Z,5.05
2019-01-15T21:16:47.854Z,5.58
2019-01-15T21:19:50.635Z,4.37
2019-01-15T21:23:13.390Z,4.50
2019-01-15T21:26:20.024Z,4.47
2019-01-15T21:29:23.048Z,4.05
2019-01-15T21:32:37.103Z,3.70
2019-01-15T21:39:01.864Z,5.87
2019-01-15T21:42:10.283Z,5.50
2019-01-15T21:45:13.071Z,7.72
2019-01-15T21:48:29.929Z,4.45
2019-01-15T21:51:33.225Z,6.47
2019-01-15T21:54:52.679Z,8.00
2019-01-15T21:57:59.786Z,3.95
2019-01-15T22:01:22.027Z,5.55
2019-01-15T22:04:44.268Z,4.30
2019-01-15T22:07:48.079Z,5.10
2019-01-15T22:10:55.472Z,5.65
2019-01-15T22:14:01.065Z,4.12
2019-01-15T22:17:03.595Z,3.62
2019-01-15T22:20:20.462Z,4.85
2019-01-15T22:23:24.784Z,4.62
2019-01-15T22:26:32.428Z,4.17
2019-01-15T22:29:51.087Z,3.10
2019-01-15T22:32:55.403Z,4.83
2019-01-15T22:36:08.940Z,5.35
2019-01-15T22:39:11.982Z,4.30
2019-01-15T22:42:34.750Z,3.17
2019-01-15T22:45:36.161Z,3.67
2019-01-15T22:48:39.796Z,3.40
2019-01-15T22:51:43.336Z,3.72
2019-01-15T22:54:49.450Z,3.60
2019-01-15T22:57:56.843Z,3.95
2019-01-15T23:01:15.498Z,3.58
2019-01-15T23:04:25.453Z,3.75
2019-01-15T23:07:32.845Z,3.87
2019-01-15T23:10:35.882Z,3.40
2019-01-15T23:13:43.274Z,4.37
2019-01-15T23:16:48.618Z,3.25
2019-01-15T23:20:12.650Z,3.75
2019-01-15T23:23:16.969Z,4.17
2019-01-15T23:26:20.008Z,4.47
2019-01-15T23:29:24.078Z,5.10
2019-01-15T23:32:27.624Z,4.08
2019-01-15T23:35:30.411Z,6.80
2019-01-15T23:38:30.893Z,8.33
2019-01-15T23:41:40.849Z,4.90
2019-01-15T23:45:03.594Z,3.85
2019-01-15T23:48:09.827Z,3.77
2019-01-15T23:51:26.055Z,6.00
2019-01-15T23:54:29.869Z,5.00
2019-01-15T23:57:43.155Z,5.08
